createdAt,value
2022-09-06T00:01:23.559Z,91.97
2022-09-06T00:03:51.007Z,91.13
2022-09-06T00:06:19.683Z,91.04
2022-09-06T00:08:47.929Z,90.92
2022-09-06T00:11:15.816Z,91.48
2022-09-06T00:13:42.669Z,92.45
2022-09-06T00:16:13.465Z,92.24
2022-09-06T00:18:41.056Z,91.86
2022-09-06T00:21:35.668Z,92.32
2022-09-06T00:24:03.927Z,92.89
2022-09-06T00:26:30.615Z,92.47
2022-09-06T00:28:57.651Z,92.91
2022-09-06T00:31:26.622Z,92.58
2022-09-06T00:33:53.883Z,92.83
2022-09-06T00:36:21.375Z,92.53
2022-09-06T00:38:48.028Z,92.76
2022-09-06T00:41:16.238Z,92.89
2022-09-06T00:43:43.208Z,92.57
2022-09-06T00:46:18.561Z,92.46
2022-09-06T00:48:48.844Z,93.17
2022-09-06T00:51:16.984Z,93.42
2022-09-06T00:53:44.114Z,94.70
2022-09-06T00:56:11.195Z,95.08
2022-09-06T00:58:38.631Z,95.08
2022-09-06T01:01:06.865Z,94.63
2022-09-06T01:03:34.476Z,94.03
2022-09-06T01:06:26.450Z,93.78
2022-09-06T01:08:53.023Z,94.48
2022-09-06T01:11:41.580Z,95.29
2022-09-06T01:14:15.620Z,95.31
2022-09-06T01:16:51.240Z,95.89
2022-09-06T01:19:33.210Z,94.87
2022-09-06T01:22:14.728Z,95.51
2022-09-06T01:25:11.638Z,95.56
2022-09-06T01:27:44.330Z,95.84
2022-09-06T01:30:13.206Z,94.87
2022-09-06T01:32:52.076Z,95.30
2022-09-06T01:35:46.448Z,96.20
2022-09-06T01:38:14.715Z,95.70
2022-09-06T01:40:41.532Z,96.57
2022-09-06T01:43:13.124Z,95.33
2022-09-06T01:46:24.339Z,95.81
2022-09-06T01:48:54.037Z,95.79
2022-09-06T01:51:37.200Z,96.06
2022-09-06T01:54:26.648Z,96.13
2022-09-06T01:56:53.310Z,96.70
2022-09-06T01:59:32.108Z,97.39
2022-09-06T02:02:14.703Z,97.48
2022-09-06T02:04:58.390Z,96.98
2022-09-06T02:07:27.782Z,97.40
2022-09-06T02:10:00.576Z,96.75
2022-09-06T02:12:30.311Z,97.20
2022-09-06T02:15:08.927Z,97.63
2022-09-06T02:17:43.997Z,97.58
2022-09-06T02:20:17.989Z,96.87
2022-09-06T02:22:47.484Z,97.90
2022-09-06T02:25:21.919Z,98.50
2022-09-06T02:27:48.588Z,98.82
2022-09-06T02:30:15.387Z,98.41
2022-09-06T02:33:00.134Z,97.54
2022-09-06T02:35:26.952Z,97.82
2022-09-06T02:37:54.100Z,98.75
2022-09-06T02:40:20.926Z,100.00
2022-09-06T02:42:47.579Z,100.00
2022-09-06T02:45:14.281Z,100.00
2022-09-06T02:47:40.992Z,99.13
2022-09-06T02:50:08.330Z,98.43
2022-09-06T02:52:34.920Z,97.57
2022-09-06T02:55:01.652Z,96.58
2022-09-06T02:57:28.255Z,95.92
2022-09-06T02:59:54.914Z,96.50
2022-09-06T03:02:21.590Z,96.91
2022-09-06T03:04:48.373Z,97.64
2022-09-06T03:07:15.039Z,98.29
2022-09-06T03:09:41.808Z,97.58
2022-09-06T03:12:08.602Z,98.01
2022-09-06T03:14:36.271Z,97.83
2022-09-06T03:17:03.885Z,97.90
2022-09-06T03:19:30.638Z,96.65
2022-09-06T03:21:57.311Z,97.77
2022-09-06T03:24:24.092Z,98.25
2022-09-06T03:26:50.938Z,98.39
2022-09-06T03:29:17.676Z,98.01
2022-09-06T03:31:44.484Z,98.65
2022-09-06T03:34:11.420Z,98.39
2022-09-06T03:36:38.355Z,98.33
2022-09-06T03:39:04.981Z,97.70
2022-09-06T03:41:31.603Z,97.04
2022-09-06T03:43:58.287Z,98.21
2022-09-06T03:46:25.049Z,99.11
2022-09-06T03:48:51.710Z,98.90
2022-09-06T03:51:18.511Z,99.68
2022-09-06T03:53:45.311Z,99.22
2022-09-06T03:56:12.137Z,99.72
2022-09-06T03:58:38.799Z,98.38
2022-09-06T04:01:08.307Z,98.28
2022-09-06T04:03:36.057Z,98.82
2022-09-06T04:06:03.737Z,97.93
2022-09-06T04:08:30.916Z,98.36
2022-09-06T04:10:58.663Z,97.82
2022-09-06T04:13:26.761Z,98.21
2022-09-06T04:15:53.671Z,97.77
2022-09-06T04:18:21.444Z,97.04
2022-09-06T04:20:50.044Z,96.95
2022-09-06T04:23:17.379Z,95.94
2022-09-06T04:25:48.560Z,96.57
2022-09-06T04:28:15.985Z,96.52
2022-09-06T04:30:42.644Z,96.32
2022-09-06T04:33:09.368Z,95.61
2022-09-06T04:35:36.409Z,93.95
2022-09-06T04:38:05.345Z,93.85
2022-09-06T04:40:32.011Z,93.55
2022-09-06T04:42:58.649Z,93.25
2022-09-06T04:45:25.425Z,92.23
2022-09-06T04:47:52.100Z,91.00
2022-09-06T04:50:18.879Z,89.70
2022-09-06T04:52:45.553Z,89.70
2022-09-06T04:55:12.214Z,89.80
2022-09-06T04:57:42.245Z,90.04
2022-09-06T05:00:12.177Z,89.66
2022-09-06T05:02:38.975Z,88.97
2022-09-06T05:05:06.157Z,88.49
2022-09-06T05:07:32.780Z,87.61
2022-09-06T05:09:59.443Z,87.04
2022-09-06T05:12:26.089Z,86.34
2022-09-06T05:14:52.737Z,86.07
2022-09-06T05:17:19.357Z,84.79
2022-09-06T05:19:46.206Z,91.17
2022-09-06T05:22:12.831Z,94.29
2022-09-06T05:24:39.492Z,91.97
2022-09-06T05:27:07.546Z,90.67
2022-09-06T05:29:34.260Z,89.65
2022-09-06T05:32:01.160Z,88.27
2022-09-06T05:34:27.834Z,88.98
2022-09-06T05:36:54.559Z,89.23
2022-09-06T05:39:21.986Z,87.91
2022-09-06T05:41:48.599Z,88.23
2022-09-06T05:44:15.319Z,87.19
2022-09-06T05:46:43.624Z,86.51
2022-09-06T05:49:10.682Z,85.75
2022-09-06T05:51:37.292Z,89.37
2022-09-06T05:54:04.290Z,88.16
2022-09-06T05:56:30.958Z,86.39
2022-09-06T05:58:57.601Z,85.25
2022-09-06T06:01:29.872Z,84.23
2022-09-06T06:04:02.332Z,83.12
2022-09-06T06:06:31.500Z,80.86
2022-09-06T06:08:58.906Z,79.70
2022-09-06T06:11:27.314Z,77.37
2022-09-06T06:13:54.682Z,76.68
2022-09-06T06:16:22.628Z,75.69
2022-09-06T06:18:52.257Z,73.62
2022-09-06T06:21:24.343Z,72.64
2022-09-06T06:23:53.923Z,74.20
2022-09-06T06:26:20.577Z,74.11
2022-09-06T06:28:47.380Z,74.68
2022-09-06T06:31:14.678Z,73.94
2022-09-06T06:33:41.999Z,73.54
2022-09-06T06:36:21.818Z,74.01
2022-09-06T06:38:49.884Z,73.85
2022-09-06T06:41:18.726Z,74.28
2022-09-06T06:43:45.666Z,74.09
2022-09-06T06:46:18.537Z,74.12
2022-09-06T06:48:46.448Z,76.33
2022-09-06T06:51:15.623Z,74.07
2022-09-06T06:53:43.638Z,74.32
2022-09-06T06:56:27.563Z,73.38
2022-09-06T06:58:57.730Z,72.25
2022-09-06T07:01:26.372Z,71.67
2022-09-06T07:03:54.423Z,71.91
2022-09-06T07:06:22.462Z,70.93
2022-09-06T07:09:08.724Z,71.05
2022-09-06T07:11:35.345Z,69.81
2022-09-06T07:14:01.934Z,69.64
2022-09-06T07:16:30.108Z,68.48
2022-09-06T07:18:56.789Z,67.62
2022-09-06T07:21:42.183Z,66.90
2022-09-06T07:24:09.740Z,66.41
2022-09-06T07:26:38.515Z,65.86
2022-09-06T07:29:06.885Z,69.09
2022-09-06T07:34:22.150Z,66.92
2022-09-06T07:36:51.730Z,64.64
2022-09-06T07:39:18.387Z,63.76
2022-09-06T07:41:45.019Z,64.22
2022-09-06T07:44:11.736Z,64.96
2022-09-06T07:46:38.496Z,63.68
2022-09-06T07:49:06.086Z,63.87
2022-09-06T07:51:33.273Z,63.70
2022-09-06T07:54:26.410Z,62.79
2022-09-06T07:56:46.637Z,62.99
2022-09-06T07:59:13.358Z,61.94
2022-09-06T08:01:40.953Z,61.45
2022-09-06T08:04:09.547Z,60.12
2022-09-06T08:09:25.394Z,57.46
2022-09-06T08:11:52.946Z,57.92
2022-09-06T08:14:20.444Z,56.87
2022-09-06T08:16:47.477Z,56.18
2022-09-06T08:19:14.554Z,54.32
2022-09-06T08:21:41.784Z,54.07
2022-09-06T08:24:12.282Z,54.39
2022-09-06T08:26:48.546Z,53.59
2022-09-06T08:29:15.268Z,52.18
2022-09-06T08:31:45.243Z,50.79
2022-09-06T08:34:12.855Z,51.46
2022-09-06T08:36:40.456Z,50.61
2022-09-06T08:39:11.984Z,50.10
2022-09-06T08:42:08.388Z,51.28
2022-09-06T08:44:57.229Z,50.72
2022-09-06T08:47:25.056Z,51.25
2022-09-06T08:49:57.995Z,50.98
2022-09-06T08:52:27.361Z,51.87
2022-09-06T08:55:15.241Z,50.95
2022-09-06T08:57:44.705Z,50.21
2022-09-06T09:00:13.732Z,50.17
2022-09-06T09:02:51.826Z,50.73
2022-09-06T09:05:31.500Z,50.62
2022-09-06T09:08:07.325Z,50.01
2022-09-06T09:10:48.600Z,48.88
2022-09-06T09:13:24.226Z,48.59
2022-09-06T09:15:50.947Z,47.87
2022-09-06T09:18:24.366Z,47.19
2022-09-06T09:20:51.147Z,45.99
2022-09-06T09:23:17.811Z,45.57
2022-09-06T09:25:46.657Z,45.20
2022-09-06T09:28:18.963Z,44.38
2022-09-06T09:30:52.389Z,44.58
2022-09-06T09:33:21.615Z,43.83
2022-09-06T09:35:48.816Z,43.55
2022-09-06T09:38:26.391Z,43.15
2022-09-06T09:40:53.170Z,43.15
2022-09-06T09:43:36.151Z,41.88
2022-09-06T09:46:08.956Z,41.50
2022-09-06T09:48:36.016Z,40.68
2022-09-06T09:51:27.044Z,43.20
2022-09-06T09:53:59.624Z,44.13
2022-09-06T09:56:54.570Z,43.34
2022-09-06T09:59:26.321Z,43.63
2022-09-06T10:02:01.684Z,43.17
2022-09-06T10:04:45.680Z,42.27
2022-09-06T10:07:21.728Z,41.85
2022-09-06T10:10:01.292Z,41.78
2022-09-06T10:12:32.442Z,41.65
2022-09-06T10:15:02.451Z,41.60
2022-09-06T10:17:38.657Z,41.54
2022-09-06T10:20:10.763Z,41.89
2022-09-06T10:22:40.404Z,41.74
2022-09-06T10:25:15.876Z,41.82
2022-09-06T10:28:10.857Z,42.94
2022-09-06T10:31:16.296Z,41.01
2022-09-06T10:33:46.012Z,40.81
2022-09-06T10:36:17.325Z,40.07
2022-09-06T10:39:00.381Z,40.17
2022-09-06T10:42:01.995Z,40.58
2022-09-06T10:45:02.334Z,41.37
2022-09-06T10:47:38.803Z,40.69
2022-09-06T10:50:06.164Z,40.68
2022-09-06T10:52:43.355Z,39.71
2022-09-06T10:55:14.274Z,39.51
2022-09-06T10:58:20.668Z,40.15
2022-09-06T11:00:49.978Z,40.24
2022-09-06T11:06:11.139Z,40.89
2022-09-06T11:08:47.950Z,40.20
2022-09-06T11:11:28.790Z,40.65
2022-09-06T11:13:55.399Z,39.69
2022-09-06T11:16:39.261Z,38.50
2022-09-06T11:19:21.591Z,37.47
2022-09-06T11:22:10.058Z,36.55
2022-09-06T11:24:46.651Z,36.24
2022-09-06T11:27:26.383Z,37.21
2022-09-06T11:29:57.620Z,37.59
2022-09-06T11:32:48.905Z,39.05
2022-09-06T11:35:26.130Z,40.13
2022-09-06T11:38:07.232Z,40.02
2022-09-06T11:40:43.535Z,39.17
2022-09-06T11:43:34.830Z,38.41
2022-09-06T11:46:01.530Z,38.48
2022-09-06T11:48:34.677Z,38.34
2022-09-06T11:51:03.099Z,38.08
2022-09-06T11:53:50.048Z,38.33
2022-09-06T11:56:39.635Z,38.52
2022-09-06T11:59:24.492Z,37.58
2022-09-06T12:02:28.508Z,36.90
2022-09-06T12:05:01.323Z,37.48
2022-09-06T12:07:30.291Z,37.96
2022-09-06T12:09:57.447Z,37.84
2022-09-06T12:12:46.479Z,37.22
2022-09-06T12:15:43.912Z,36.92
2022-09-06T12:18:30.586Z,36.55
2022-09-06T12:20:57.146Z,36.32
2022-09-06T12:23:36.368Z,37.17
2022-09-06T12:26:07.443Z,38.19
2022-09-06T12:28:49.869Z,41.13
2022-09-06T12:31:25.027Z,41.93
2022-09-06T12:33:54.802Z,42.66
2022-09-06T12:36:29.789Z,42.37
2022-09-06T12:39:09.901Z,42.47
2022-09-06T12:41:43.752Z,42.73
2022-09-06T12:44:13.243Z,42.66
2022-09-06T12:46:47.225Z,41.92
2022-09-06T12:49:17.688Z,41.60
2022-09-06T12:51:44.656Z,42.26
2022-09-06T12:54:28.635Z,41.77
2022-09-06T12:57:12.894Z,41.15
2022-09-06T12:59:57.085Z,41.40
2022-09-06T13:02:37.765Z,41.73
2022-09-06T13:05:08.374Z,41.14
2022-09-06T13:07:40.465Z,42.16
2022-09-06T13:10:08.889Z,42.25
2022-09-06T13:12:39.593Z,42.75
2022-09-06T13:15:32.536Z,43.26
2022-09-06T13:18:22.151Z,43.49
2022-09-06T13:21:07.548Z,43.19
2022-09-06T13:23:42.557Z,42.94
2022-09-06T13:26:09.279Z,43.69
2022-09-06T13:28:36.277Z,44.17
2022-09-06T13:31:18.321Z,44.04
2022-09-06T13:33:46.633Z,44.31
2022-09-06T13:36:33.859Z,44.12
2022-09-06T13:39:03.683Z,43.81
2022-09-06T13:41:30.277Z,42.17
2022-09-06T13:44:07.916Z,41.67
2022-09-06T13:46:38.377Z,41.72
2022-09-06T13:49:05.759Z,42.58
2022-09-06T13:51:32.453Z,42.62
2022-09-06T13:54:07.844Z,43.54
2022-09-06T13:56:35.405Z,43.94
2022-09-06T13:59:02.729Z,44.28
2022-09-06T14:01:29.648Z,45.04
2022-09-06T14:03:56.590Z,44.81
2022-09-06T14:06:23.696Z,45.21
2022-09-06T14:09:06.441Z,45.34
2022-09-06T14:11:34.440Z,45.57
2022-09-06T14:14:01.110Z,45.20
2022-09-06T14:16:27.798Z,45.35
2022-09-06T14:18:54.533Z,45.25
2022-09-06T14:21:21.292Z,45.55
2022-09-06T14:23:51.057Z,45.34
2022-09-06T14:26:19.005Z,44.64
2022-09-06T14:28:45.779Z,44.02
2022-09-06T14:31:17.888Z,43.12
2022-09-06T14:33:44.752Z,43.73
2022-09-06T14:36:14.359Z,43.35
2022-09-06T14:38:42.282Z,42.54
2022-09-06T14:41:09.710Z,42.72
2022-09-06T14:43:37.119Z,42.64
2022-09-06T14:46:12.682Z,42.40
2022-09-06T14:48:42.310Z,42.89
2022-09-06T14:51:20.860Z,42.33
2022-09-06T14:53:49.853Z,42.41
2022-09-06T14:56:16.629Z,42.02
2022-09-06T14:58:44.004Z,41.56
2022-09-06T15:01:14.968Z,41.70
2022-09-06T15:03:44.114Z,43.04
2022-09-06T15:06:11.300Z,43.02
2022-09-06T15:08:38.368Z,43.45
2022-09-06T15:11:08.238Z,43.32
2022-09-06T15:13:38.979Z,43.08
2022-09-06T15:16:09.408Z,43.57
2022-09-06T15:18:36.600Z,43.96
2022-09-06T15:21:12.173Z,44.28
2022-09-06T15:23:39.763Z,45.58
2022-09-06T15:26:08.529Z,45.57
2022-09-06T15:28:37.193Z,45.25
2022-09-06T15:31:05.693Z,45.04
2022-09-06T15:33:34.372Z,45.63
2022-09-06T15:36:06.147Z,46.38
2022-09-06T15:38:37.198Z,47.25
2022-09-06T15:41:09.340Z,47.60
2022-09-06T15:43:38.676Z,47.53
2022-09-06T15:46:05.538Z,47.93
2022-09-06T15:48:47.274Z,48.09
2022-09-06T15:51:16.654Z,48.63
2022-09-06T15:53:44.320Z,48.78
2022-09-06T15:56:14.468Z,49.03
2022-09-06T15:58:41.584Z,49.09
2022-09-06T16:01:17.440Z,49.33
2022-09-06T16:03:55.795Z,49.66
2022-09-06T16:08:55.660Z,50.08
2022-09-06T16:11:22.376Z,49.84
2022-09-06T16:13:49.522Z,50.07
2022-09-06T16:16:17.110Z,50.24
2022-09-06T16:18:47.173Z,50.56
2022-09-06T16:21:13.775Z,50.70
2022-09-06T16:23:41.977Z,50.94
2022-09-06T16:26:10.168Z,51.47
2022-09-06T16:28:37.734Z,52.36
2022-09-06T16:31:07.763Z,52.39
2022-09-06T16:33:36.541Z,52.75
2022-09-06T16:36:06.336Z,52.93
2022-09-06T16:38:33.488Z,52.74
2022-09-06T16:41:02.211Z,53.54
2022-09-06T16:43:29.196Z,53.56
2022-09-06T16:46:00.249Z,54.09
2022-09-06T16:48:28.193Z,54.43
2022-09-06T16:50:55.212Z,55.31
2022-09-06T16:53:23.712Z,54.88
2022-09-06T16:55:51.218Z,57.14
2022-09-06T16:58:17.890Z,56.64
2022-09-06T17:00:45.454Z,57.20
2022-09-06T17:03:15.478Z,57.51
2022-09-06T17:05:42.218Z,58.18
2022-09-06T17:08:10.002Z,58.49
2022-09-06T17:10:39.818Z,59.74
2022-09-06T17:13:07.127Z,60.30
2022-09-06T17:15:53.749Z,60.51
2022-09-06T17:18:22.330Z,60.74
2022-09-06T17:21:01.016Z,60.84
2022-09-06T17:23:28.048Z,61.05
2022-09-06T17:25:54.732Z,61.68
2022-09-06T17:28:22.035Z,61.50
2022-09-06T17:30:49.297Z,61.67
2022-09-06T17:33:17.670Z,61.86
2022-09-06T17:35:45.662Z,61.67
2022-09-06T17:38:14.072Z,61.83
2022-09-06T17:40:40.723Z,62.10
2022-09-06T17:43:07.451Z,62.26
2022-09-06T17:45:44.926Z,62.84
2022-09-06T17:48:11.622Z,63.55
2022-09-06T17:50:40.120Z,63.74
2022-09-06T17:53:06.837Z,63.92
2022-09-06T17:55:33.475Z,64.35
2022-09-06T17:58:00.198Z,64.74
2022-09-06T18:00:26.877Z,64.69
2022-09-06T18:02:54.353Z,64.87
2022-09-06T18:05:21.230Z,65.58
2022-09-06T18:07:48.089Z,66.12
2022-09-06T18:10:15.227Z,66.57
2022-09-06T18:12:42.690Z,66.59
2022-09-06T18:15:10.333Z,66.42
2022-09-06T18:17:36.988Z,66.46
2022-09-06T18:20:05.248Z,66.52
2022-09-06T18:22:33.050Z,66.85
2022-09-06T18:24:59.768Z,67.44
2022-09-06T18:27:26.509Z,67.89
2022-09-06T18:29:53.426Z,68.29
2022-09-06T18:32:20.336Z,68.51
2022-09-06T18:34:47.214Z,69.10
2022-09-06T18:37:14.580Z,69.18
2022-09-06T18:39:42.488Z,69.69
2022-09-06T18:42:11.497Z,70.18
2022-09-06T18:44:38.286Z,69.55
2022-09-06T18:47:08.042Z,70.00
2022-09-06T18:49:38.503Z,70.31
2022-09-06T18:52:07.732Z,70.37
2022-09-06T18:54:35.284Z,70.29
2022-09-06T18:57:02.162Z,68.96
2022-09-06T18:59:29.198Z,65.46
2022-09-06T19:01:56.487Z,64.18
2022-09-06T19:04:23.786Z,64.19
2022-09-06T19:06:52.970Z,63.10
2022-09-06T19:09:19.992Z,62.26
2022-09-06T19:11:51.609Z,62.59
2022-09-06T19:14:18.824Z,64.98
2022-09-06T19:16:48.044Z,65.10
2022-09-06T19:19:15.130Z,66.67
2022-09-06T19:21:42.775Z,67.80
2022-09-06T19:24:11.805Z,68.64
2022-09-06T19:26:41.952Z,68.95
2022-09-06T19:29:16.036Z,69.71
2022-09-06T19:31:43.944Z,69.51
2022-09-06T19:34:12.462Z,69.86
2022-09-06T19:36:39.524Z,69.29
2022-09-06T19:39:13.352Z,69.81
2022-09-06T19:41:45.040Z,68.47
2022-09-06T19:44:12.352Z,67.93
2022-09-06T19:46:44.867Z,68.62
2022-09-06T19:49:13.028Z,67.03
2022-09-06T19:51:39.869Z,67.21
2022-09-06T19:54:06.553Z,67.12
2022-09-06T19:56:34.813Z,66.69
2022-09-06T19:59:04.711Z,65.64
2022-09-06T20:01:33.635Z,66.21
2022-09-06T20:04:02.911Z,66.59
2022-09-06T20:06:30.394Z,65.19
2022-09-06T20:08:58.630Z,64.13
2022-09-06T20:11:28.100Z,64.40
2022-09-06T20:13:54.997Z,64.13
2022-09-06T20:16:22.336Z,64.88
2022-09-06T20:18:49.168Z,64.93
2022-09-06T20:21:18.456Z,64.72
2022-09-06T20:23:50.530Z,65.00
2022-09-06T20:26:18.401Z,65.23
2022-09-06T20:28:46.123Z,66.17
2022-09-06T20:31:18.131Z,66.61
2022-09-06T20:33:49.383Z,66.54
2022-09-06T20:36:17.360Z,66.51
2022-09-06T20:38:45.274Z,67.39
2022-09-06T20:41:17.235Z,67.11
2022-09-06T20:43:44.353Z,66.85
2022-09-06T20:46:12.294Z,67.76
2022-09-06T20:48:44.247Z,68.75
2022-09-06T20:51:20.011Z,68.83
2022-09-06T20:53:50.812Z,69.07
2022-09-06T20:56:20.248Z,69.45
2022-09-06T20:58:52.537Z,68.95
2022-09-06T21:01:22.553Z,69.37
2022-09-06T21:03:51.710Z,70.31
2022-09-06T21:06:19.393Z,70.82
2022-09-06T21:08:46.708Z,71.94
2022-09-06T21:11:13.495Z,72.87
2022-09-06T21:13:40.382Z,74.37
2022-09-06T21:16:07.560Z,75.37
2022-09-06T21:18:35.200Z,75.70
2022-09-06T21:21:07.083Z,76.85
2022-09-06T21:23:39.016Z,77.98
2022-09-06T21:26:07.982Z,78.43
2022-09-06T21:28:39.989Z,79.77
2022-09-06T21:31:14.963Z,80.18
2022-09-06T21:33:44.262Z,80.06
2022-09-06T21:36:13.807Z,80.21
2022-09-06T21:38:43.156Z,80.09
2022-09-06T21:41:11.090Z,80.72
2022-09-06T21:43:37.878Z,81.16
2022-09-06T21:46:08.085Z,81.08
2022-09-06T21:48:38.666Z,80.76
2022-09-06T21:51:10.248Z,81.11
2022-09-06T21:53:37.624Z,81.45
2022-09-06T21:56:05.414Z,81.16
2022-09-06T21:58:32.894Z,80.95
2022-09-06T22:01:01.171Z,81.81
2022-09-06T22:03:30.598Z,82.15
2022-09-06T22:05:57.955Z,82.84
2022-09-06T22:08:25.356Z,81.99
2022-09-06T22:10:52.372Z,82.40
2022-09-06T22:13:20.476Z,81.95
2022-09-06T22:15:47.399Z,82.66
2022-09-06T22:18:14.153Z,83.48
2022-09-06T22:20:40.839Z,83.72
2022-09-06T22:23:08.508Z,82.80
2022-09-06T22:25:35.225Z,83.58
2022-09-06T22:28:02.056Z,83.46
2022-09-06T22:30:28.737Z,83.62
2022-09-06T22:32:55.452Z,83.91
2022-09-06T22:35:22.300Z,83.35
2022-09-06T22:37:49.195Z,83.98
2022-09-06T22:40:15.983Z,82.99
2022-09-06T22:42:43.449Z,82.99
2022-09-06T22:45:10.415Z,83.84
2022-09-06T22:47:37.070Z,84.67
2022-09-06T22:50:03.997Z,84.91
2022-09-06T22:52:30.632Z,84.53
2022-09-06T22:54:57.283Z,83.41
2022-09-06T22:57:23.968Z,82.83
2022-09-06T22:59:50.653Z,83.02
2022-09-06T23:02:17.316Z,83.43
2022-09-06T23:04:44.042Z,84.80
2022-09-06T23:07:11.004Z,83.81
2022-09-06T23:09:37.684Z,83.74
2022-09-06T23:12:05.165Z,84.90
2022-09-06T23:14:31.885Z,85.44
2022-09-06T23:16:58.535Z,85.33
2022-09-06T23:19:25.193Z,85.14
2022-09-06T23:21:51.949Z,86.18
2022-09-06T23:24:18.609Z,85.70
2022-09-06T23:26:45.343Z,85.88
2022-09-06T23:29:12.854Z,85.94
2022-09-06T23:31:39.646Z,85.29
2022-09-06T23:34:06.498Z,84.32
2022-09-06T23:36:33.296Z,84.07
2022-09-06T23:39:01.841Z,84.32
2022-09-06T23:41:29.115Z,84.72
2022-09-06T23:43:55.853Z,84.61
2022-09-06T23:46:22.529Z,85.67
2022-09-06T23:48:49.371Z,86.53
2022-09-06T23:51:16.127Z,86.87
2022-09-06T23:53:42.987Z,86.61
2022-09-06T23:56:10.131Z,86.13
2022-09-06T23:58:37.812Z,85.84
